Jekyll Island, GA

12:32 PM EST on December 22, 2014 (GMT -0500)
McKinnon | Change Station
CLOSE
Current Station
Airport
Location: Saint Simons Island,
Elevation: 20 ft
Nearby Weather Stations
Active Advisory: Special Statement

Elev 20 ft 31.15 °N, 81.39 °W | Updated 39 minutes ago

Fog
Fog
55 °F
Feels Like 55 °F
N
8
Wind Variable Wind from NE

Today
High -- | Low -- °F
--% Chance of Precip.
Yesterday
High -- | Low -- °F
Precip. -- in
7:20 AM 5:28 PM
New Moon, 1% visible
Pressure 29.99 in
Visibility 0.5 miles
Clouds
Dew Point 54 °F
Humidity 96%
Rainfall 0.04 in
Snow Depth Not available.
UV Not available.
Pollen .50 out of 12
Air Quality Not available.
Flu Activity Not available.
METAR KSSI 221653Z AUTO 04007KT 1/2SM FG VV002 13/12 A2999 RMK AO2 SLP156 T01280122

More Conditions Fewer Conditions

Pressure 29.99 in
Visibility 0.5 miles
Clouds
Dew Point 54 °F
Humidity 96%
Rainfall 0.04 in
Snow Depth Not available.
UV Not available.
Pollen .50 out of 12
Air Quality Not available.
Flu Activity Not available.
METAR KSSI 221653Z AUTO 04007KT 1/2SM FG VV002 13/12 A2999 RMK AO2 SLP156 T01280122

More Conditions Fewer Conditions

10-Day Weather Forecast

Almanac

Astronomy

Dec. 22, 2014 Rise Set
Actual Time
Civil Twilight
Nautical Twilight
Astronomical Twilight
Moon
Length of Visible Light
Length of Day
Tomorrow will be .
, % of the Moon is Illuminated

Today's Extremes

State Highs State Lows

Community

WunderPhotos

Upload Photos

1,779,654 photos uploaded!

WunderBlogs® & News

Nearby

Air Quality

  Air Quality AQ Index Pollutant
Not available.

Snow Depth

Station Depth Elevation

Earthquake Activity

City Distance Mag. Time & Date
Minimum magnitude displayed is 2.5.

Coastal Water Temperatures

Place Temperature

Nearby Weather Stations